sensor_id;sensor_type;location;lat;lon;timestamp;pressure;altitude;pressure_sealevel;temperature;humidity
250;BME280;109;19.806;-70.704;2023-07-29T00:00:07;101595.31;;;36.13;44.40
250;BME280;109;19.806;-70.704;2023-07-29T00:02:38;101596.63;;;36.19;44.86
250;BME280;109;19.806;-70.704;2023-07-29T00:05:05;101586.66;;;36.48;44.48
250;BME280;109;19.806;-70.704;2023-07-29T00:07:31;101595.53;;;36.01;45.30
250;BME280;109;19.806;-70.704;2023-07-29T00:09:58;101593.13;;;36.57;44.52
250;BME280;109;19.806;-70.704;2023-07-29T00:12:24;101592.19;;;36.87;43.50
250;BME280;109;19.806;-70.704;2023-07-29T00:14:51;101600.91;;;36.61;44.61
250;BME280;109;19.806;-70.704;2023-07-29T00:17:17;101593.16;;;36.67;44.19
250;BME280;109;19.806;-70.704;2023-07-29T00:19:46;101600.22;;;36.29;44.40
250;BME280;109;19.806;-70.704;2023-07-29T00:22:12;101608.25;;;36.80;43.21
250;BME280;109;19.806;-70.704;2023-07-29T00:24:39;101613.69;;;36.61;43.63
250;BME280;109;19.806;-70.704;2023-07-29T00:27:07;101605.16;;;36.45;43.59
250;BME280;109;19.806;-70.704;2023-07-29T00:29:33;101618.56;;;36.57;43.46
250;BME280;109;19.806;-70.704;2023-07-29T00:32:00;101621.72;;;36.62;43.31
250;BME280;109;19.806;-70.704;2023-07-29T00:34:26;101620.91;;;36.91;43.19
250;BME280;109;19.806;-70.704;2023-07-29T00:36:53;101622.75;;;36.81;42.91
250;BME280;109;19.806;-70.704;2023-07-29T00:39:19;101626.38;;;37.01;43.02
250;BME280;109;19.806;-70.704;2023-07-29T00:41:46;101631.56;;;37.04;43.21
250;BME280;109;19.806;-70.704;2023-07-29T00:44:12;101630.13;;;37.38;42.33
250;BME280;109;19.806;-70.704;2023-07-29T00:46:40;101633.22;;;36.95;42.40
250;BME280;109;19.806;-70.704;2023-07-29T00:49:08;101634.41;;;37.21;42.04
250;BME280;109;19.806;-70.704;2023-07-29T00:51:34;101638.28;;;37.19;42.38
250;BME280;109;19.806;-70.704;2023-07-29T00:54:01;101640.16;;;37.18;42.07
250;BME280;109;19.806;-70.704;2023-07-29T00:56:30;101634.84;;;37.26;41.53
250;BME280;109;19.806;-70.704;2023-07-29T00:58:57;101633.97;;;37.36;41.45
250;BME280;109;19.806;-70.704;2023-07-29T01:01:31;101635.72;;;37.27;41.31
250;BME280;109;19.806;-70.704;2023-07-29T01:03:58;101628.53;;;37.26;41.41
250;BME280;109;19.806;-70.704;2023-07-29T01:09:06;101641.16;;;37.37;41.20
250;BME280;109;19.806;-70.704;2023-07-29T01:12:06;101639.13;;;36.90;41.26
250;BME280;109;19.806;-70.704;2023-07-29T01:14:42;101640.31;;;37.07;41.03
250;BME280;109;19.806;-70.704;2023-07-29T01:17:19;101639.31;;;37.47;40.79
250;BME280;109;19.806;-70.704;2023-07-29T01:22:38;101652.97;;;37.27;40.46
250;BME280;109;19.806;-70.704;2023-07-29T01:25:06;101655.53;;;37.00;40.95
250;BME280;109;19.806;-70.704;2023-07-29T01:27:41;101653.94;;;36.97;40.95
250;BME280;109;19.806;-70.704;2023-07-29T01:30:08;101659.50;;;36.77;40.82
250;BME280;109;19.806;-70.704;2023-07-29T01:35:33;101664.72;;;37.18;40.38
250;BME280;109;19.806;-70.704;2023-07-29T01:38:32;101665.00;;;37.34;40.25
250;BME280;109;19.806;-70.704;2023-07-29T01:41:08;101659.25;;;37.18;40.26
250;BME280;109;19.806;-70.704;2023-07-29T01:43:36;101657.25;;;37.20;40.51
250;BME280;109;19.806;-70.704;2023-07-29T01:46:16;101661.72;;;37.12;40.22
250;BME280;109;19.806;-70.704;2023-07-29T01:49:04;101650.50;;;37.24;40.28
250;BME280;109;19.806;-70.704;2023-07-29T01:51:38;101655.69;;;37.27;40.30
250;BME280;109;19.806;-70.704;2023-07-29T01:54:04;101656.41;;;37.29;39.87
250;BME280;109;19.806;-70.704;2023-07-29T01:56:37;101652.53;;;37.13;40.24
250;BME280;109;19.806;-70.704;2023-07-29T01:59:04;101662.00;;;37.18;40.10
250;BME280;109;19.806;-70.704;2023-07-29T02:01:37;101665.59;;;37.28;40.53
250;BME280;109;19.806;-70.704;2023-07-29T02:04:04;101666.63;;;37.56;39.77
250;BME280;109;19.806;-70.704;2023-07-29T02:06:37;101673.94;;;37.27;39.87
250;BME280;109;19.806;-70.704;2023-07-29T02:09:03;101672.19;;;37.36;40.13
250;BME280;109;19.806;-70.704;2023-07-29T02:11:37;101670.94;;;37.40;40.16
250;BME280;109;19.806;-70.704;2023-07-29T02:14:04;101677.50;;;37.37;40.25
250;BME280;109;19.806;-70.704;2023-07-29T02:16:37;101685.56;;;37.19;40.21
250;BME280;109;19.806;-70.704;2023-07-29T02:19:05;101683.97;;;37.36;39.78
250;BME280;109;19.806;-70.704;2023-07-29T02:21:38;101686.56;;;37.38;40.24
250;BME280;109;19.806;-70.704;2023-07-29T02:24:04;101694.78;;;37.47;39.85
250;BME280;109;19.806;-70.704;2023-07-29T02:26:38;101695.50;;;37.30;40.41
250;BME280;109;19.806;-70.704;2023-07-29T02:29:05;101696.34;;;37.11;40.35
250;BME280;109;19.806;-70.704;2023-07-29T02:31:47;101695.31;;;37.22;40.23
250;BME280;109;19.806;-70.704;2023-07-29T02:34:34;101696.06;;;37.14;40.70
250;BME280;109;19.806;-70.704;2023-07-29T02:37:14;101697.84;;;36.94;41.14
250;BME280;109;19.806;-70.704;2023-07-29T02:39:47;101696.91;;;37.05;40.54
250;BME280;109;19.806;-70.704;2023-07-29T02:42:14;101695.06;;;37.15;40.55
250;BME280;109;19.806;-70.704;2023-07-29T02:44:47;101703.53;;;37.12;40.64
250;BME280;109;19.806;-70.704;2023-07-29T02:47:13;101704.66;;;37.00;40.86
250;BME280;109;19.806;-70.704;2023-07-29T02:49:47;101697.59;;;36.97;40.73
250;BME280;109;19.806;-70.704;2023-07-29T02:52:27;101702.84;;;36.80;41.44
250;BME280;109;19.806;-70.704;2023-07-29T02:54:54;101709.72;;;37.05;41.17
250;BME280;109;19.806;-70.704;2023-07-29T02:57:27;101714.94;;;36.96;41.31
250;BME280;109;19.806;-70.704;2023-07-29T02:59:53;101715.00;;;37.06;41.10
250;BME280;109;19.806;-70.704;2023-07-29T03:02:27;101717.31;;;37.11;40.60
250;BME280;109;19.806;-70.704;2023-07-29T03:04:53;101723.75;;;37.10;40.64
250;BME280;109;19.806;-70.704;2023-07-29T03:07:27;101723.91;;;36.98;40.53
250;BME280;109;19.806;-70.704;2023-07-29T03:09:53;101738.03;;;36.83;41.05
250;BME280;109;19.806;-70.704;2023-07-29T03:12:27;101731.13;;;36.79;41.05
250;BME280;109;19.806;-70.704;2023-07-29T03:14:54;101735.50;;;36.91;41.24
250;BME280;109;19.806;-70.704;2023-07-29T03:17:27;101729.84;;;36.83;41.29
250;BME280;109;19.806;-70.704;2023-07-29T03:19:54;101726.28;;;36.92;40.88
250;BME280;109;19.806;-70.704;2023-07-29T03:22:27;101728.84;;;36.84;40.99
250;BME280;109;19.806;-70.704;2023-07-29T03:24:54;101729.91;;;36.52;41.28
250;BME280;109;19.806;-70.704;2023-07-29T03:27:27;101726.13;;;36.74;41.26
250;BME280;109;19.806;-70.704;2023-07-29T03:30:01;101723.53;;;36.73;41.21
250;BME280;109;19.806;-70.704;2023-07-29T03:32:34;101723.38;;;36.74;41.41
250;BME280;109;19.806;-70.704;2023-07-29T03:35:01;101717.69;;;36.96;41.26
250;BME280;109;19.806;-70.704;2023-07-29T03:37:34;101725.00;;;36.86;40.94
250;BME280;109;19.806;-70.704;2023-07-29T03:40:01;101722.47;;;37.04;40.89
250;BME280;109;19.806;-70.704;2023-07-29T03:42:35;101724.13;;;36.86;40.83
250;BME280;109;19.806;-70.704;2023-07-29T03:45:02;101722.38;;;36.66;41.22
250;BME280;109;19.806;-70.704;2023-07-29T03:47:35;101727.59;;;36.88;41.37
250;BME280;109;19.806;-70.704;2023-07-29T03:50:22;101728.84;;;36.84;40.92
250;BME280;109;19.806;-70.704;2023-07-29T03:52:56;101720.00;;;36.91;41.15
250;BME280;109;19.806;-70.704;2023-07-29T03:55:22;101723.75;;;37.10;40.70
250;BME280;109;19.806;-70.704;2023-07-29T03:57:57;101718.91;;;37.13;40.70
250;BME280;109;19.806;-70.704;2023-07-29T04:00:24;101713.94;;;36.88;40.75
250;BME280;109;19.806;-70.704;2023-07-29T04:02:57;101715.22;;;36.93;41.16
250;BME280;109;19.806;-70.704;2023-07-29T04:05:24;101710.91;;;36.81;41.28
250;BME280;109;19.806;-70.704;2023-07-29T04:07:57;101698.53;;;36.68;41.37
250;BME280;109;19.806;-70.704;2023-07-29T04:10:24;101696.97;;;36.84;41.08
250;BME280;109;19.806;-70.704;2023-07-29T04:12:58;101695.97;;;36.85;41.20
250;BME280;109;19.806;-70.704;2023-07-29T04:15:24;101699.00;;;36.82;41.24
250;BME280;109;19.806;-70.704;2023-07-29T04:17:58;101700.28;;;36.78;41.28
250;BME280;109;19.806;-70.704;2023-07-29T04:20:24;101691.94;;;36.80;40.87
250;BME280;109;19.806;-70.704;2023-07-29T04:22:58;101691.94;;;36.80;41.44
250;BME280;109;19.806;-70.704;2023-07-29T04:25:25;101689.19;;;36.60;41.39
250;BME280;109;19.806;-70.704;2023-07-29T04:27:58;101684.94;;;36.47;41.52
250;BME280;109;19.806;-70.704;2023-07-29T04:30:33;101687.09;;;36.43;41.65
250;BME280;109;19.806;-70.704;2023-07-29T04:33:06;101688.06;;;36.33;41.54
250;BME280;109;19.806;-70.704;2023-07-29T04:35:33;101688.06;;;36.42;41.50
250;BME280;109;19.806;-70.704;2023-07-29T04:38:06;101683.59;;;36.72;41.43
250;BME280;109;19.806;-70.704;2023-07-29T04:40:33;101674.06;;;36.56;41.65
250;BME280;109;19.806;-70.704;2023-07-29T04:43:06;101676.56;;;36.69;41.34
250;BME280;109;19.806;-70.704;2023-07-29T04:45:34;101672.03;;;36.89;40.85
250;BME280;109;19.806;-70.704;2023-07-29T04:48:07;101672.78;;;37.01;41.03
250;BME280;109;19.806;-70.704;2023-07-29T04:50:47;101668.97;;;36.63;41.61
250;BME280;109;19.806;-70.704;2023-07-29T04:53:14;101660.69;;;36.53;41.46
250;BME280;109;19.806;-70.704;2023-07-29T04:55:47;101658.13;;;37.02;40.32
250;BME280;109;19.806;-70.704;2023-07-29T04:58:13;101647.59;;;36.97;40.65
250;BME280;109;19.806;-70.704;2023-07-29T05:00:47;101650.63;;;36.35;41.35
250;BME280;109;19.806;-70.704;2023-07-29T05:03:13;101651.59;;;36.24;41.44
250;BME280;109;19.806;-70.704;2023-07-29T05:05:46;101644.03;;;36.37;41.61
250;BME280;109;19.806;-70.704;2023-07-29T05:08:21;101629.28;;;36.49;41.52
250;BME280;109;19.806;-70.704;2023-07-29T05:10:54;101632.06;;;36.59;41.10
250;BME280;109;19.806;-70.704;2023-07-29T05:13:22;101629.53;;;36.37;41.34
250;BME280;109;19.806;-70.704;2023-07-29T05:15:56;101617.28;;;36.81;40.94
250;BME280;109;19.806;-70.704;2023-07-29T05:18:23;101618.47;;;36.88;41.03
250;BME280;109;19.806;-70.704;2023-07-29T05:20:56;101616.88;;;36.95;40.44
250;BME280;109;19.806;-70.704;2023-07-29T05:23:23;101606.69;;;36.87;40.91
250;BME280;109;19.806;-70.704;2023-07-29T05:25:57;101606.81;;;36.76;40.28
250;BME280;109;19.806;-70.704;2023-07-29T05:28:24;101601.66;;;36.73;40.96
250;BME280;109;19.806;-70.704;2023-07-29T05:31:01;101608.88;;;36.34;41.78
250;BME280;109;19.806;-70.704;2023-07-29T05:33:35;101599.97;;;36.32;41.25
250;BME280;109;19.806;-70.704;2023-07-29T05:36:02;101603.88;;;36.39;41.83
250;BME280;109;19.806;-70.704;2023-07-29T05:38:35;101598.97;;;36.43;41.51
250;BME280;109;19.806;-70.704;2023-07-29T05:41:07;101592.00;;;36.59;41.54
250;BME280;109;19.806;-70.704;2023-07-29T05:43:40;101597.97;;;36.53;41.28
250;BME280;109;19.806;-70.704;2023-07-29T05:46:09;101597.91;;;36.74;40.98
250;BME280;109;19.806;-70.704;2023-07-29T05:48:42;101605.09;;;36.66;41.10
250;BME280;109;19.806;-70.704;2023-07-29T05:51:30;101598.84;;;36.54;41.29
250;BME280;109;19.806;-70.704;2023-07-29T05:54:03;101594.88;;;36.58;41.43
250;BME280;109;19.806;-70.704;2023-07-29T05:56:29;101597.59;;;36.58;41.23
250;BME280;109;19.806;-70.704;2023-07-29T05:59:03;101589.25;;;36.50;40.80
250;BME280;109;19.806;-70.704;2023-07-29T06:01:30;101596.56;;;36.49;41.11
250;BME280;109;19.806;-70.704;2023-07-29T06:04:02;101591.06;;;36.30;41.10
250;BME280;109;19.806;-70.704;2023-07-29T06:06:29;101594.22;;;36.25;41.73
250;BME280;109;19.806;-70.704;2023-07-29T06:09:02;101591.91;;;36.31;41.10
250;BME280;109;19.806;-70.704;2023-07-29T06:11:29;101581.75;;;36.42;41.43
250;BME280;109;19.806;-70.704;2023-07-29T06:14:02;101576.16;;;36.44;41.40
250;BME280;109;19.806;-70.704;2023-07-29T06:16:29;101570.84;;;36.42;41.07
250;BME280;109;19.806;-70.704;2023-07-29T06:19:02;101568.97;;;36.33;41.39
250;BME280;109;19.806;-70.704;2023-07-29T06:21:29;101574.16;;;36.46;41.39
250;BME280;109;19.806;-70.704;2023-07-29T06:24:02;101572.56;;;36.34;41.34
250;BME280;109;19.806;-70.704;2023-07-29T06:26:29;101566.56;;;36.40;41.17
250;BME280;109;19.806;-70.704;2023-07-29T06:29:02;101564.91;;;36.18;41.80
250;BME280;109;19.806;-70.704;2023-07-29T06:31:29;101569.19;;;36.11;41.51
250;BME280;109;19.806;-70.704;2023-07-29T06:34:02;101557.34;;;36.41;41.34
250;BME280;109;19.806;-70.704;2023-07-29T06:36:29;101555.94;;;36.56;40.70
250;BME280;109;19.806;-70.704;2023-07-29T06:39:02;101552.16;;;36.28;41.21
250;BME280;109;19.806;-70.704;2023-07-29T06:41:37;101548.75;;;36.36;40.83
250;BME280;109;19.806;-70.704;2023-07-29T06:44:12;101550.03;;;36.32;41.40
250;BME280;109;19.806;-70.704;2023-07-29T06:46:39;101546.31;;;36.42;41.28
250;BME280;109;19.806;-70.704;2023-07-29T06:49:12;101548.19;;;36.42;40.70
250;BME280;109;19.806;-70.704;2023-07-29T06:51:52;101563.78;;;36.30;41.29
250;BME280;109;19.806;-70.704;2023-07-29T06:54:18;101558.91;;;36.24;40.75
250;BME280;109;19.806;-70.704;2023-07-29T06:56:51;101553.97;;;36.08;41.28
250;BME280;109;19.806;-70.704;2023-07-29T06:59:18;101559.72;;;35.75;42.12
250;BME280;109;19.806;-70.704;2023-07-29T07:01:51;101562.75;;;35.81;41.41
250;BME280;109;19.806;-70.704;2023-07-29T07:04:17;101560.66;;;35.94;41.22
250;BME280;109;19.806;-70.704;2023-07-29T07:06:50;101560.53;;;36.06;41.58
250;BME280;109;19.806;-70.704;2023-07-29T07:09:17;101560.13;;;36.01;41.39
250;BME280;109;19.806;-70.704;2023-07-29T07:11:49;101551.03;;;35.90;41.09
250;BME280;109;19.806;-70.704;2023-07-29T07:14:15;101550.97;;;36.11;41.27
250;BME280;109;19.806;-70.704;2023-07-29T07:16:48;101548.50;;;36.08;41.28
250;BME280;109;19.806;-70.704;2023-07-29T07:19:15;101551.09;;;36.00;41.47
250;BME280;109;19.806;-70.704;2023-07-29T07:21:48;101552.22;;;35.98;41.48
250;BME280;109;19.806;-70.704;2023-07-29T07:24:15;101548.03;;;35.93;41.28
250;BME280;109;19.806;-70.704;2023-07-29T07:26:48;101552.34;;;35.96;41.37
250;BME280;109;19.806;-70.704;2023-07-29T07:29:15;101548.94;;;35.73;41.68
250;BME280;109;19.806;-70.704;2023-07-29T07:31:53;101553.09;;;35.47;41.50
250;BME280;109;19.806;-70.704;2023-07-29T07:34:26;101551.69;;;35.52;41.91
250;BME280;109;19.806;-70.704;2023-07-29T07:36:53;101549.31;;;35.59;41.71
250;BME280;109;19.806;-70.704;2023-07-29T07:39:34;101550.81;;;35.73;41.81
250;BME280;109;19.806;-70.704;2023-07-29T07:42:07;101538.91;;;35.74;41.24
250;BME280;109;19.806;-70.704;2023-07-29T07:44:34;101544.81;;;35.79;41.59
250;BME280;109;19.806;-70.704;2023-07-29T07:47:07;101551.25;;;35.78;41.35
250;BME280;109;19.806;-70.704;2023-07-29T07:49:54;101548.31;;;35.60;41.81
250;BME280;109;19.806;-70.704;2023-07-29T07:52:28;101548.00;;;35.63;41.64
250;BME280;109;19.806;-70.704;2023-07-29T07:54:54;101545.69;;;35.79;41.58
250;BME280;109;19.806;-70.704;2023-07-29T07:57:28;101541.63;;;35.74;41.16
250;BME280;109;19.806;-70.704;2023-07-29T07:59:54;101539.38;;;35.79;41.20
250;BME280;109;19.806;-70.704;2023-07-29T08:02:27;101537.78;;;35.76;41.37
250;BME280;109;19.806;-70.704;2023-07-29T08:04:54;101539.19;;;35.71;41.25
250;BME280;109;19.806;-70.704;2023-07-29T08:07:26;101535.06;;;35.76;41.33
250;BME280;109;19.806;-70.704;2023-07-29T08:09:52;101534.59;;;35.71;41.63
250;BME280;109;19.806;-70.704;2023-07-29T08:12:25;101531.28;;;35.68;41.34
250;BME280;109;19.806;-70.704;2023-07-29T08:14:52;101532.34;;;35.76;41.45
250;BME280;109;19.806;-70.704;2023-07-29T08:17:25;101538.84;;;35.64;41.40
250;BME280;109;19.806;-70.704;2023-07-29T08:19:52;101538.13;;;35.62;41.16
250;BME280;109;19.806;-70.704;2023-07-29T08:22:25;101531.41;;;35.66;41.29
250;BME280;109;19.806;-70.704;2023-07-29T08:24:52;101534.31;;;35.74;41.04
250;BME280;109;19.806;-70.704;2023-07-29T08:27:25;101539.63;;;35.76;41.08
250;BME280;109;19.806;-70.704;2023-07-29T08:29:53;101540.13;;;35.90;40.86
250;BME280;109;19.806;-70.704;2023-07-29T08:32:26;101534.88;;;36.08;40.47
250;BME280;109;19.806;-70.704;2023-07-29T08:34:59;101529.69;;;35.96;40.85
250;BME280;109;19.806;-70.704;2023-07-29T08:37:32;101524.66;;;35.91;40.80
250;BME280;109;19.806;-70.704;2023-07-29T08:39:59;101530.81;;;35.93;40.68
250;BME280;109;19.806;-70.704;2023-07-29T08:42:32;101541.88;;;36.01;41.02
250;BME280;109;19.806;-70.704;2023-07-29T08:45:07;101541.84;;;35.91;40.51
250;BME280;109;19.806;-70.704;2023-07-29T08:47:50;101539.13;;;35.91;40.94
250;BME280;109;19.806;-70.704;2023-07-29T08:50:35;101540.44;;;35.87;41.02
250;BME280;109;19.806;-70.704;2023-07-29T08:53:05;101538.69;;;35.86;40.45
250;BME280;109;19.806;-70.704;2023-07-29T08:55:39;101547.28;;;35.82;40.81
250;BME280;109;19.806;-70.704;2023-07-29T08:58:05;101549.47;;;35.67;40.63
250;BME280;109;19.806;-70.704;2023-07-29T09:00:39;101555.38;;;35.72;41.14
250;BME280;109;19.806;-70.704;2023-07-29T09:03:06;101549.66;;;35.75;40.80
250;BME280;109;19.806;-70.704;2023-07-29T09:05:39;101555.38;;;35.72;41.16
250;BME280;109;19.806;-70.704;2023-07-29T09:08:06;101565.34;;;35.83;40.77
250;BME280;109;19.806;-70.704;2023-07-29T09:10:48;101553.31;;;35.85;40.32
250;BME280;109;19.806;-70.704;2023-07-29T09:13:22;101564.66;;;35.90;40.15
250;BME280;109;19.806;-70.704;2023-07-29T09:15:48;101566.47;;;35.80;40.28
250;BME280;109;19.806;-70.704;2023-07-29T09:18:22;101564.63;;;35.81;40.55
250;BME280;109;19.806;-70.704;2023-07-29T09:20:49;101564.47;;;35.82;40.48
250;BME280;109;19.806;-70.704;2023-07-29T09:23:23;101570.81;;;35.92;40.01
250;BME280;109;19.806;-70.704;2023-07-29T09:25:50;101576.88;;;35.96;40.32
250;BME280;109;19.806;-70.704;2023-07-29T09:28:23;101580.03;;;36.01;40.36
250;BME280;109;19.806;-70.704;2023-07-29T09:30:50;101581.19;;;35.99;40.40
250;BME280;109;19.806;-70.704;2023-07-29T09:33:26;101579.97;;;35.82;40.60
250;BME280;109;19.806;-70.704;2023-07-29T09:35:53;101588.38;;;36.00;40.29
250;BME280;109;19.806;-70.704;2023-07-29T09:38:29;101590.22;;;35.99;40.46
250;BME280;109;19.806;-70.704;2023-07-29T09:41:02;101600.03;;;35.81;40.69
250;BME280;109;19.806;-70.704;2023-07-29T09:43:30;101595.13;;;35.75;40.45
250;BME280;109;19.806;-70.704;2023-07-29T09:46:05;101610.66;;;35.84;40.33
250;BME280;109;19.806;-70.704;2023-07-29T09:48:53;101608.19;;;35.81;40.48
250;BME280;109;19.806;-70.704;2023-07-29T09:51:29;101606.34;;;35.81;40.89
250;BME280;109;19.806;-70.704;2023-07-29T09:54:04;101614.56;;;35.70;40.50
250;BME280;109;19.806;-70.704;2023-07-29T09:56:41;101618.81;;;35.84;40.52
250;BME280;109;19.806;-70.704;2023-07-29T09:59:19;101621.00;;;35.90;40.50
250;BME280;109;19.806;-70.704;2023-07-29T10:01:45;101612.19;;;36.07;40.51
250;BME280;109;19.806;-70.704;2023-07-29T10:04:18;101611.31;;;36.07;40.29
250;BME280;109;19.806;-70.704;2023-07-29T10:06:46;101607.00;;;36.04;40.18
250;BME280;109;19.806;-70.704;2023-07-29T10:09:20;101616.41;;;35.90;40.66
250;BME280;109;19.806;-70.704;2023-07-29T10:11:47;101618.59;;;35.97;40.43
250;BME280;109;19.806;-70.704;2023-07-29T10:14:24;101616.41;;;35.90;40.36
250;BME280;109;19.806;-70.704;2023-07-29T10:17:00;101618.03;;;36.03;40.37
250;BME280;109;19.806;-70.704;2023-07-29T10:19:29;101607.84;;;35.95;40.39
250;BME280;109;19.806;-70.704;2023-07-29T10:22:04;101608.84;;;36.04;40.34
250;BME280;109;19.806;-70.704;2023-07-29T10:24:32;101613.91;;;36.08;40.61
250;BME280;109;19.806;-70.704;2023-07-29T10:27:07;101627.00;;;35.84;40.60
250;BME280;109;19.806;-70.704;2023-07-29T10:29:38;101630.63;;;35.94;40.67
250;BME280;109;19.806;-70.704;2023-07-29T10:32:13;101630.13;;;35.79;40.61
250;BME280;109;19.806;-70.704;2023-07-29T10:34:41;101631.59;;;35.83;40.20
250;BME280;109;19.806;-70.704;2023-07-29T10:37:14;101641.53;;;35.73;40.59
250;BME280;109;19.806;-70.704;2023-07-29T10:39:52;101648.09;;;35.71;40.67
250;BME280;109;19.806;-70.704;2023-07-29T10:42:25;101640.06;;;35.69;40.38
250;BME280;109;19.806;-70.704;2023-07-29T10:44:52;101642.31;;;35.64;40.67
250;BME280;109;19.806;-70.704;2023-07-29T10:47:27;101650.81;;;35.50;40.79
250;BME280;109;19.806;-70.704;2023-07-29T10:50:21;101644.47;;;35.61;40.95
250;BME280;109;19.806;-70.704;2023-07-29T10:55:56;101649.50;;;35.65;40.85
250;BME280;109;19.806;-70.704;2023-07-29T10:58:29;101643.94;;;35.87;40.60
250;BME280;109;19.806;-70.704;2023-07-29T11:01:13;101661.59;;;35.93;40.40
250;BME280;109;19.806;-70.704;2023-07-29T11:15:19;101670.38;;;35.97;40.28
250;BME280;109;19.806;-70.704;2023-07-29T11:20:15;101665.63;;;36.19;40.41
250;BME280;109;19.806;-70.704;2023-07-29T11:22:42;101663.84;;;36.39;40.11
250;BME280;109;19.806;-70.704;2023-07-29T11:25:11;101671.56;;;36.65;39.71
250;BME280;109;19.806;-70.704;2023-07-29T11:27:39;101668.66;;;36.66;39.46
250;BME280;109;19.806;-70.704;2023-07-29T11:30:07;101677.88;;;36.75;39.63
250;BME280;109;19.806;-70.704;2023-07-29T11:32:35;101674.59;;;36.90;39.46
250;BME280;109;19.806;-70.704;2023-07-29T11:35:10;101675.88;;;36.86;39.31
250;BME280;109;19.806;-70.704;2023-07-29T11:37:39;101676.75;;;36.87;39.26
250;BME280;109;19.806;-70.704;2023-07-29T11:40:06;101671.06;;;37.00;39.08
250;BME280;109;19.806;-70.704;2023-07-29T11:42:35;101672.31;;;37.05;39.13
250;BME280;109;19.806;-70.704;2023-07-29T11:45:02;101675.53;;;37.29;38.87
250;BME280;109;19.806;-70.704;2023-07-29T11:47:33;101675.63;;;37.18;38.74
250;BME280;109;19.806;-70.704;2023-07-29T11:50:04;101686.72;;;37.26;39.16
250;BME280;109;19.806;-70.704;2023-07-29T11:52:35;101679.91;;;36.92;39.04
250;BME280;109;19.806;-70.704;2023-07-29T11:55:04;101678.16;;;36.81;39.47
250;BME280;109;19.806;-70.704;2023-07-29T11:57:32;101685.59;;;36.70;39.67
250;BME280;109;19.806;-70.704;2023-07-29T12:00:04;101684.56;;;37.01;39.65
250;BME280;109;19.806;-70.704;2023-07-29T12:02:36;101679.81;;;37.22;38.95
250;BME280;109;19.806;-70.704;2023-07-29T12:05:04;101676.34;;;37.20;38.92
250;BME280;109;19.806;-70.704;2023-07-29T12:07:32;101676.69;;;37.17;39.25
250;BME280;109;19.806;-70.704;2023-07-29T12:10:03;101676.22;;;37.22;38.85
250;BME280;109;19.806;-70.704;2023-07-29T12:12:29;101679.25;;;37.09;38.93
250;BME280;109;19.806;-70.704;2023-07-29T12:14:57;101673.22;;;37.25;39.52
250;BME280;109;19.806;-70.704;2023-07-29T12:17:23;101675.63;;;37.57;38.77
250;BME280;109;19.806;-70.704;2023-07-29T12:19:53;101669.31;;;37.66;39.29
250;BME280;109;19.806;-70.704;2023-07-29T12:22:20;101658.97;;;37.79;38.73
250;BME280;109;19.806;-70.704;2023-07-29T12:24:46;101661.66;;;37.89;38.86
250;BME280;109;19.806;-70.704;2023-07-29T12:27:14;101657.25;;;37.78;38.99
250;BME280;109;19.806;-70.704;2023-07-29T12:29:42;101660.53;;;38.28;38.49
250;BME280;109;19.806;-70.704;2023-07-29T12:32:10;101665.72;;;38.22;38.29
250;BME280;109;19.806;-70.704;2023-07-29T12:34:38;101665.69;;;37.85;38.75
250;BME280;109;19.806;-70.704;2023-07-29T12:37:06;101661.97;;;37.57;38.95
250;BME280;109;19.806;-70.704;2023-07-29T12:39:34;101655.56;;;37.39;39.52
250;BME280;109;19.806;-70.704;2023-07-29T12:42:02;101660.13;;;37.48;39.58
250;BME280;109;19.806;-70.704;2023-07-29T12:44:34;101655.13;;;37.43;39.51
250;BME280;109;19.806;-70.704;2023-07-29T12:47:02;101674.09;;;37.54;39.78
250;BME280;109;19.806;-70.704;2023-07-29T12:49:30;101665.91;;;37.54;39.50
250;BME280;109;19.806;-70.704;2023-07-29T12:51:58;101659.56;;;37.54;39.93
250;BME280;109;19.806;-70.704;2023-07-29T12:54:25;101660.13;;;37.57;39.58
250;BME280;109;19.806;-70.704;2023-07-29T12:56:51;101658.25;;;37.67;39.93
250;BME280;109;19.806;-70.704;2023-07-29T12:59:18;101648.59;;;37.73;39.49
250;BME280;109;19.806;-70.704;2023-07-29T13:01:45;101655.19;;;37.71;39.65
250;BME280;109;19.806;-70.704;2023-07-29T13:04:11;101656.81;;;38.10;39.85
250;BME280;109;19.806;-70.704;2023-07-29T13:06:38;101657.66;;;38.30;39.42
250;BME280;109;19.806;-70.704;2023-07-29T13:09:05;101659.00;;;38.44;39.20
250;BME280;109;19.806;-70.704;2023-07-29T13:11:31;101651.81;;;38.43;39.37
250;BME280;109;19.806;-70.704;2023-07-29T13:13:58;101656.16;;;38.35;39.11
250;BME280;109;19.806;-70.704;2023-07-29T13:16:27;101666.69;;;37.93;39.39
250;BME280;109;19.806;-70.704;2023-07-29T13:18:54;101661.13;;;38.77;39.68
250;BME280;109;19.806;-70.704;2023-07-29T13:21:21;101660.06;;;39.41;38.33
250;BME280;109;19.806;-70.704;2023-07-29T13:23:48;101660.31;;;39.48;38.38
250;BME280;109;19.806;-70.704;2023-07-29T13:26:14;101671.50;;;39.80;38.06
250;BME280;109;19.806;-70.704;2023-07-29T13:28:41;101669.31;;;39.66;38.03
250;BME280;109;19.806;-70.704;2023-07-29T13:31:07;101663.09;;;39.56;38.23
250;BME280;109;19.806;-70.704;2023-07-29T13:33:34;101667.75;;;39.37;37.98
250;BME280;109;19.806;-70.704;2023-07-29T13:36:01;101662.16;;;39.29;38.28
250;BME280;109;19.806;-70.704;2023-07-29T13:38:30;101657.09;;;39.17;38.06
250;BME280;109;19.806;-70.704;2023-07-29T13:40:57;101653.25;;;39.27;38.63
250;BME280;109;19.806;-70.704;2023-07-29T13:43:23;101653.88;;;39.83;37.87
250;BME280;109;19.806;-70.704;2023-07-29T13:45:50;101660.94;;;39.85;37.46
250;BME280;109;19.806;-70.704;2023-07-29T13:48:17;101671.28;;;39.99;36.99
250;BME280;109;19.806;-70.704;2023-07-29T13:50:44;101667.13;;;40.13;37.55
250;BME280;109;19.806;-70.704;2023-07-29T13:53:10;101666.16;;;40.04;37.00